createdAt,value
2018-03-25T15:00:06.701Z,10.03
2018-03-25T15:03:58.118Z,10.77
2018-03-25T15:06:24.427Z,9.57
2018-03-25T15:08:50.725Z,10.93
2018-03-25T15:11:17.021Z,10.20
2018-03-25T15:13:43.403Z,10.80
2018-03-25T15:16:09.715Z,8.60
2018-03-25T15:18:36.737Z,9.27
2018-03-25T15:21:03.019Z,8.13
2018-03-25T15:23:29.369Z,8.87
2018-03-25T15:25:55.666Z,8.23
2018-03-25T15:28:21.961Z,10.33
2018-03-25T15:30:48.272Z,8.73
2018-03-25T15:33:14.577Z,8.93
2018-03-25T15:35:40.864Z,9.10
2018-03-25T15:38:07.999Z,8.30
2018-03-25T15:40:34.262Z,9.40
2018-03-25T15:43:00.601Z,9.03
2018-03-25T15:45:26.885Z,10.97
2018-03-25T15:47:53.184Z,10.63
2018-03-25T15:50:19.508Z,11.60
2018-03-25T15:52:45.805Z,9.57
2018-03-25T15:55:12.867Z,9.03
2018-03-25T15:57:39.162Z,10.27
2018-03-25T16:00:05.520Z,8.50
2018-03-25T16:02:32.604Z,7.27
2018-03-25T16:04:58.868Z,9.57
2018-03-25T16:07:25.260Z,8.77
2018-03-25T16:09:51.596Z,8.43
2018-03-25T16:12:17.888Z,8.73
2018-03-25T16:14:44.228Z,7.97
2018-03-25T16:17:10.637Z,8.43
2018-03-25T16:19:37.738Z,7.50
2018-03-25T16:22:04.033Z,7.33
2018-03-25T16:24:30.369Z,7.17
2018-03-25T16:26:57.411Z,7.30
2018-03-25T16:29:25.613Z,7.73
2018-03-25T16:31:51.921Z,8.20
2018-03-25T16:34:18.249Z,9.50
2018-03-25T16:36:44.629Z,9.83
2018-03-25T16:39:10.901Z,12.63
2018-03-25T16:41:37.989Z,12.10
2018-03-25T16:44:04.317Z,12.37
2018-03-25T16:46:30.614Z,9.70
2018-03-25T16:48:57.660Z,29.47
2018-03-25T16:51:24.773Z,23.07
2018-03-25T16:53:51.086Z,15.07
2018-03-25T16:56:17.408Z,12.10
2018-03-25T16:58:43.691Z,12.27
2018-03-25T17:01:10.014Z,11.60
2018-03-25T17:03:36.330Z,9.60
2018-03-25T17:06:02.710Z,9.53
2018-03-25T17:08:29.120Z,9.83
2018-03-25T17:10:55.484Z,8.47
2018-03-25T17:13:21.822Z,8.63
2018-03-25T17:15:48.143Z,9.03
2018-03-25T17:18:14.521Z,9.70
2018-03-25T17:20:40.925Z,8.53
2018-03-25T17:23:07.372Z,8.40
2018-03-25T17:25:33.680Z,7.80
2018-03-25T17:28:00.001Z,9.17
2018-03-25T17:30:26.326Z,8.70
2018-03-25T17:32:53.383Z,8.17
2018-03-25T17:35:19.677Z,8.17
2018-03-25T17:37:46.004Z,7.27
2018-03-25T17:40:12.308Z,6.97
2018-03-25T17:42:38.622Z,8.00
2018-03-25T17:45:04.923Z,7.97
2018-03-25T17:47:31.964Z,8.27
2018-03-25T17:49:59.026Z,6.90
2018-03-25T17:52:26.046Z,9.10
2018-03-25T17:54:52.344Z,12.10
2018-03-25T17:57:18.605Z,11.97
2018-03-25T17:59:45.046Z,12.93
2018-03-25T18:02:12.081Z,12.30
2018-03-25T18:04:38.455Z,10.90
2018-03-25T18:07:04.829Z,7.87
2018-03-25T18:09:31.440Z,8.37
2018-03-25T18:11:57.712Z,7.77
2018-03-25T18:14:24.125Z,7.90
2018-03-25T18:16:50.498Z,8.87
2018-03-25T18:19:17.547Z,9.70
2018-03-25T18:21:44.755Z,8.97
2018-03-25T18:27:25.806Z,13.13
2018-03-25T18:42:14.238Z,6.53
2018-03-25T18:44:40.557Z,7.80
2018-03-25T18:47:07.590Z,6.80
2018-03-25T18:49:33.880Z,6.80
2018-03-25T18:52:00.317Z,6.57
2018-03-25T18:54:27.164Z,7.07
2018-03-25T18:56:53.508Z,8.80
2018-03-25T18:59:19.834Z,8.10
2018-03-25T19:01:46.153Z,7.53
2018-03-25T19:04:12.501Z,6.70
2018-03-25T19:06:38.817Z,8.33
2018-03-25T19:09:05.153Z,8.17
2018-03-25T19:11:31.452Z,9.77
2018-03-25T19:13:57.876Z,9.93
2018-03-25T19:16:24.930Z,9.83
2018-03-25T19:18:51.254Z,10.37
2018-03-25T19:21:18.304Z,9.63
2018-03-25T19:23:44.612Z,9.40
2018-03-25T19:26:10.928Z,8.10
2018-03-25T19:28:37.240Z,8.73
2018-03-25T19:31:03.589Z,8.97
2018-03-25T19:33:31.024Z,8.27
2018-03-25T19:35:57.354Z,8.50
2018-03-25T19:38:23.702Z,8.80
2018-03-25T19:40:50.119Z,8.53
2018-03-25T19:43:16.417Z,8.40
2018-03-25T19:45:43.044Z,9.23
2018-03-25T19:48:09.558Z,9.90
2018-03-25T19:50:36.707Z,9.73
2018-03-25T19:53:03.054Z,9.13
2018-03-25T19:55:30.072Z,8.40
2018-03-25T19:57:56.491Z,7.10
2018-03-25T20:00:22.792Z,8.10
2018-03-25T20:02:49.137Z,7.73
2018-03-25T20:05:15.463Z,7.20
2018-03-25T20:07:41.796Z,7.87
2018-03-25T20:10:08.108Z,8.53
2018-03-25T20:12:34.434Z,7.43
2018-03-25T20:15:01.549Z,7.17
2018-03-25T20:17:27.877Z,7.27
2018-03-25T20:19:54.172Z,8.27
2018-03-25T20:22:20.526Z,8.50
2018-03-25T20:24:46.868Z,7.53
2018-03-25T20:27:13.178Z,7.60
2018-03-25T20:29:39.533Z,7.10
2018-03-25T20:32:05.881Z,12.23
2018-03-25T20:34:33.112Z,8.83
2018-03-25T20:36:59.445Z,9.37
2018-03-25T20:39:25.835Z,10.63
2018-03-25T20:41:52.229Z,10.20
2018-03-25T20:44:19.319Z,10.47
2018-03-25T20:46:45.636Z,9.50
2018-03-25T20:49:12.250Z,9.90
2018-03-25T20:51:38.617Z,9.93
2018-03-25T20:54:06.038Z,8.57
2018-03-25T20:56:33.137Z,8.23
2018-03-25T20:58:59.474Z,12.88
2018-03-25T21:01:25.848Z,9.17
2018-03-25T21:03:52.954Z,8.33
2018-03-25T21:06:19.300Z,7.67
2018-03-25T21:08:45.724Z,7.03
2018-03-25T21:11:12.120Z,6.77
2018-03-25T21:13:38.417Z,7.17
2018-03-25T21:16:04.883Z,7.50
2018-03-25T21:18:31.398Z,7.87
2018-03-25T21:20:58.436Z,7.67
2018-03-25T21:23:24.787Z,7.93
2018-03-25T21:25:51.812Z,7.80
2018-03-25T21:28:18.106Z,7.60
2018-03-25T21:30:44.409Z,8.57
2018-03-25T21:33:10.751Z,8.33
2018-03-25T21:35:37.047Z,8.00
2018-03-25T21:38:04.097Z,7.93
2018-03-25T21:40:31.220Z,7.53
2018-03-25T21:42:57.532Z,7.57
2018-03-25T21:45:23.841Z,7.43
2018-03-25T21:47:50.129Z,8.00
2018-03-25T21:50:16.448Z,8.93
2018-03-25T21:52:42.793Z,8.40
2018-03-25T21:55:09.130Z,7.50
2018-03-25T21:57:36.238Z,8.33
2018-03-25T22:00:02.624Z,8.57
2018-03-25T22:02:28.934Z,8.47
2018-03-25T22:04:55.634Z,9.00
2018-03-25T22:07:21.968Z,8.37
2018-03-25T22:09:48.279Z,7.97
2018-03-25T22:12:14.642Z,8.60
2018-03-25T22:14:40.947Z,9.50
2018-03-25T22:17:07.310Z,9.30
2018-03-25T22:19:33.630Z,8.33
2018-03-25T22:22:00.004Z,9.10
2018-03-25T22:24:27.077Z,8.23
2018-03-25T22:26:53.773Z,9.37
2018-03-25T22:29:20.148Z,8.67
2018-03-25T22:31:46.528Z,8.63
2018-03-25T22:34:12.932Z,9.63
2018-03-25T22:36:39.215Z,9.43
2018-03-25T22:39:06.518Z,8.67
2018-03-25T22:41:32.898Z,9.17
2018-03-25T22:43:59.948Z,8.40
2018-03-25T22:46:26.572Z,8.87
2018-03-25T22:48:52.876Z,8.90
2018-03-25T22:51:19.434Z,8.33
2018-03-25T22:53:46.515Z,8.37
2018-03-25T22:56:13.577Z,8.20
2018-03-25T22:58:39.885Z,8.97
2018-03-25T23:01:06.942Z,7.17
2018-03-25T23:03:33.993Z,8.47
2018-03-25T23:06:01.034Z,7.70
2018-03-25T23:08:28.078Z,8.30
2018-03-25T23:10:55.237Z,7.33
2018-03-25T23:13:22.324Z,7.97
2018-03-25T23:15:48.623Z,8.27
2018-03-25T23:18:15.699Z,8.17
2018-03-25T23:20:41.993Z,7.80
2018-03-25T23:23:09.097Z,7.60
2018-03-25T23:25:35.476Z,7.10
2018-03-25T23:28:02.006Z,8.37
2018-03-25T23:30:29.042Z,7.17
2018-03-25T23:32:55.345Z,7.67
2018-03-25T23:35:21.652Z,7.73
2018-03-25T23:37:47.929Z,8.27
2018-03-25T23:40:14.217Z,7.83
2018-03-25T23:42:40.543Z,8.27
2018-03-25T23:45:06.848Z,7.67
2018-03-25T23:47:33.892Z,7.37
2018-03-25T23:50:00.949Z,7.33
2018-03-25T23:52:27.232Z,7.43
2018-03-25T23:54:53.508Z,6.87
2018-03-25T23:57:19.764Z,8.03
2018-03-25T23:59:46.037Z,8.07
